createdAt,value
2017-12-24T00:00:36.399Z,970.97
2017-12-24T00:01:36.432Z,971.08
2017-12-24T00:02:36.442Z,970.95
2017-12-24T00:03:36.431Z,970.99
2017-12-24T00:04:36.447Z,970.94
2017-12-24T00:05:36.461Z,970.94
2017-12-24T00:06:36.476Z,970.91
2017-12-24T00:07:36.490Z,970.86
2017-12-24T00:08:36.518Z,970.92
2017-12-24T00:09:36.522Z,970.85
2017-12-24T00:10:36.545Z,970.91
2017-12-24T00:11:36.554Z,970.84
2017-12-24T00:12:36.568Z,970.93
2017-12-24T00:13:36.582Z,970.87
2017-12-24T00:14:36.596Z,970.94
2017-12-24T00:15:36.611Z,970.91
2017-12-24T00:16:36.625Z,970.84
2017-12-24T00:17:36.643Z,970.81
2017-12-24T00:18:36.656Z,970.89
2017-12-24T00:19:36.669Z,970.73
2017-12-24T00:20:36.686Z,970.78
2017-12-24T00:21:36.702Z,970.74
2017-12-24T00:22:36.715Z,970.76
2017-12-24T00:23:36.729Z,970.73
2017-12-24T00:24:36.744Z,970.77
2017-12-24T00:25:36.765Z,970.7
2017-12-24T00:26:36.775Z,970.73
2017-12-24T00:27:36.787Z,970.68
2017-12-24T00:28:36.803Z,970.73
2017-12-24T00:29:36.819Z,970.65
2017-12-24T00:30:36.830Z,970.69
2017-12-24T00:31:36.848Z,970.67
2017-12-24T00:32:36.861Z,970.66
2017-12-24T00:33:36.878Z,970.64
2017-12-24T00:34:36.891Z,970.61
2017-12-24T00:35:36.909Z,970.64
2017-12-24T00:36:36.922Z,970.61
2017-12-24T00:37:36.936Z,970.6
2017-12-24T00:38:36.952Z,970.62
2017-12-24T00:39:36.967Z,970.62
2017-12-24T00:40:36.983Z,970.61
2017-12-24T00:41:36.997Z,970.59
2017-12-24T00:42:37.012Z,970.57
2017-12-24T00:43:37.027Z,970.64
2017-12-24T00:44:37.041Z,970.6
2017-12-24T00:45:37.057Z,970.57
2017-12-24T00:46:37.071Z,970.6
2017-12-24T00:47:37.102Z,970.61
2017-12-24T00:48:37.102Z,970.57
2017-12-24T00:49:37.115Z,970.57
2017-12-24T00:50:37.132Z,970.52
2017-12-24T00:51:37.147Z,970.53
2017-12-24T00:52:37.161Z,970.53
2017-12-24T00:53:37.175Z,970.55
2017-12-24T00:54:37.191Z,970.6
2017-12-24T00:55:37.209Z,970.65
2017-12-24T00:56:37.220Z,970.57
2017-12-24T00:57:37.235Z,970.58
2017-12-24T00:58:37.249Z,970.57
2017-12-24T00:59:37.265Z,970.59
2017-12-24T01:00:37.279Z,970.57
2017-12-24T01:01:37.294Z,970.52
2017-12-24T01:02:37.309Z,970.52
2017-12-24T01:03:37.323Z,970.55
2017-12-24T01:04:37.337Z,970.54
2017-12-24T01:05:37.352Z,970.59
2017-12-24T01:06:37.367Z,970.57
2017-12-24T01:07:37.382Z,970.53
2017-12-24T01:08:37.396Z,970.56
2017-12-24T01:09:37.412Z,970.59
2017-12-24T01:10:37.475Z,970.62
2017-12-24T01:11:37.439Z,970.55
2017-12-24T01:12:37.453Z,970.56
2017-12-24T01:13:37.469Z,970.6
2017-12-24T01:14:37.483Z,970.43
2017-12-24T01:15:37.504Z,970.55
2017-12-24T01:16:37.521Z,970.62
2017-12-24T01:17:37.531Z,970.6
2017-12-24T01:18:37.543Z,970.49
2017-12-24T01:19:37.557Z,970.55
2017-12-24T01:20:37.572Z,970.57
2017-12-24T01:21:37.587Z,970.55
2017-12-24T01:22:37.600Z,970.61
2017-12-24T01:23:37.615Z,970.62
2017-12-24T01:24:37.631Z,970.67
2017-12-24T01:25:37.694Z,970.6
2017-12-24T01:26:37.657Z,970.56
2017-12-24T01:27:37.677Z,970.61
2017-12-24T01:28:37.687Z,970.54
2017-12-24T01:29:37.702Z,970.56
2017-12-24T01:30:37.717Z,970.58
2017-12-24T01:31:37.732Z,970.59
2017-12-24T01:32:37.746Z,970.59
2017-12-24T01:33:37.761Z,970.6
2017-12-24T01:34:37.775Z,970.59
2017-12-24T01:35:37.788Z,970.55
2017-12-24T01:36:37.804Z,970.62
2017-12-24T01:37:37.818Z,970.63
2017-12-24T01:38:37.832Z,970.68
2017-12-24T01:39:37.848Z,970.59
2017-12-24T01:40:37.914Z,970.53
2017-12-24T01:41:37.877Z,970.66
2017-12-24T01:42:37.891Z,970.54
2017-12-24T01:43:37.905Z,970.6
2017-12-24T01:44:37.921Z,970.53
2017-12-24T01:45:37.937Z,970.51
2017-12-24T01:46:37.951Z,970.5
2017-12-24T01:47:37.964Z,970.45
2017-12-24T01:48:37.984Z,970.45
2017-12-24T01:49:37.994Z,970.47
2017-12-24T01:50:38.009Z,970.39
2017-12-24T01:51:38.023Z,970.43
2017-12-24T01:52:38.037Z,970.32
2017-12-24T01:53:38.053Z,970.34
2017-12-24T01:54:38.066Z,970.28
2017-12-24T01:55:38.130Z,970.31
2017-12-24T01:56:38.095Z,970.28
2017-12-24T01:57:38.110Z,970.31
2017-12-24T01:58:38.124Z,970.27
2017-12-24T01:59:38.139Z,970.28
2017-12-24T02:00:38.153Z,970.37
2017-12-24T02:01:38.169Z,970.41
2017-12-24T02:02:38.185Z,970.38
2017-12-24T02:03:38.197Z,970.27
2017-12-24T02:04:38.211Z,970.3
2017-12-24T02:05:38.226Z,970.38
2017-12-24T02:06:38.240Z,970.38
2017-12-24T02:07:38.256Z,970.32
2017-12-24T02:08:38.269Z,970.36
2017-12-24T02:09:38.284Z,970.31
2017-12-24T02:10:38.350Z,970.4
2017-12-24T02:11:38.313Z,970.44
2017-12-24T02:12:38.329Z,970.5
2017-12-24T02:13:38.342Z,970.45
2017-12-24T02:14:38.357Z,970.34
2017-12-24T02:15:38.371Z,970.39
2017-12-24T02:16:38.385Z,970.35
2017-12-24T02:17:38.400Z,970.33
2017-12-24T02:18:38.414Z,970.29
2017-12-24T02:19:38.522Z,970.34
2017-12-24T02:20:38.444Z,970.39
2017-12-24T02:21:38.482Z,970.4
2017-12-24T02:22:38.472Z,970.38
2017-12-24T02:23:38.488Z,970.24
2017-12-24T02:24:38.501Z,970.29
2017-12-24T02:25:38.566Z,970.26
2017-12-24T02:26:38.531Z,970.2
2017-12-24T02:27:38.543Z,970.23
2017-12-24T02:28:38.559Z,970.26
2017-12-24T02:29:38.572Z,970.19
2017-12-24T02:30:38.588Z,970.13
2017-12-24T02:31:38.602Z,970.18
2017-12-24T02:32:38.618Z,970.27
2017-12-24T02:33:38.631Z,970.22
2017-12-24T02:34:38.647Z,970.13
2017-12-24T02:35:38.669Z,970.27
2017-12-24T02:36:38.674Z,970.21
2017-12-24T02:37:38.689Z,970.2
2017-12-24T02:38:38.704Z,970.28
2017-12-24T02:39:38.717Z,970.2
2017-12-24T02:40:38.782Z,970.2
2017-12-24T02:41:38.748Z,970.19
2017-12-24T02:42:38.760Z,970.11
2017-12-24T02:43:38.775Z,970.12
2017-12-24T02:44:38.789Z,970.04
2017-12-24T02:45:38.803Z,970.06
2017-12-24T02:46:38.818Z,970.04
2017-12-24T02:47:38.835Z,970.03
2017-12-24T02:48:38.846Z,969.97
2017-12-24T02:49:38.860Z,969.98
2017-12-24T02:50:38.883Z,970.02
2017-12-24T02:51:38.891Z,969.98
2017-12-24T02:52:38.904Z,969.93
2017-12-24T02:53:38.920Z,969.98
2017-12-24T02:54:38.936Z,969.96
2017-12-24T02:55:39.004Z,969.94
2017-12-24T02:56:38.964Z,969.92
2017-12-24T02:57:38.977Z,969.94
2017-12-24T02:58:38.992Z,969.97
2017-12-24T02:59:39.006Z,969.98
2017-12-24T03:00:39.018Z,970.01
2017-12-24T03:01:39.034Z,969.96
2017-12-24T03:02:39.049Z,969.99
2017-12-24T03:03:39.065Z,969.88
2017-12-24T03:04:39.078Z,969.95
2017-12-24T03:05:39.094Z,969.9
2017-12-24T03:06:39.143Z,969.92
2017-12-24T03:07:39.123Z,969.91
2017-12-24T03:08:39.136Z,969.88
2017-12-24T03:09:39.151Z,969.9
2017-12-24T03:10:39.216Z,969.94
2017-12-24T03:11:39.179Z,969.86
2017-12-24T03:12:39.199Z,969.92
2017-12-24T03:13:39.210Z,969.75
2017-12-24T03:14:39.224Z,969.86
2017-12-24T03:15:39.238Z,969.83
2017-12-24T03:16:39.251Z,969.9
2017-12-24T03:17:39.271Z,969.88
2017-12-24T03:18:39.282Z,969.9
2017-12-24T03:19:39.296Z,969.84
2017-12-24T03:20:39.320Z,969.85
2017-12-24T03:21:39.325Z,969.85
2017-12-24T03:22:39.339Z,969.82
2017-12-24T03:23:39.353Z,969.89
2017-12-24T03:24:39.371Z,969.84
2017-12-24T03:25:39.434Z,969.82
2017-12-24T03:26:39.397Z,969.87
2017-12-24T03:27:39.413Z,969.87
2017-12-24T03:28:39.428Z,969.83
2017-12-24T03:29:39.439Z,969.81
2017-12-24T03:30:39.456Z,969.87
2017-12-24T03:31:39.471Z,969.79
2017-12-24T03:32:39.486Z,969.76
2017-12-24T03:33:39.499Z,969.72
2017-12-24T03:34:39.514Z,969.8
2017-12-24T03:35:39.528Z,969.76
2017-12-24T03:36:39.543Z,969.74
2017-12-24T03:37:39.565Z,969.75
2017-12-24T03:38:39.572Z,969.69
2017-12-24T03:39:39.587Z,969.79
2017-12-24T03:40:39.700Z,969.74
2017-12-24T03:41:39.615Z,969.73
2017-12-24T03:42:39.630Z,969.77
2017-12-24T03:43:39.644Z,969.76
2017-12-24T03:44:39.659Z,969.73
2017-12-24T03:45:39.674Z,969.74
2017-12-24T03:46:39.688Z,969.8
2017-12-24T03:47:39.703Z,969.82
2017-12-24T03:48:39.724Z,969.87
2017-12-24T03:49:39.732Z,969.78
2017-12-24T03:50:39.746Z,969.8
2017-12-24T03:51:39.760Z,969.8
2017-12-24T03:52:39.774Z,969.79
2017-12-24T03:53:39.790Z,969.7
2017-12-24T03:54:39.805Z,969.73
2017-12-24T03:55:39.921Z,969.67
2017-12-24T03:56:39.832Z,969.68
2017-12-24T03:57:39.848Z,969.67
2017-12-24T03:58:39.864Z,969.66
2017-12-24T03:59:39.876Z,969.68
2017-12-24T04:00:39.890Z,969.69
2017-12-24T04:01:39.905Z,969.7
2017-12-24T04:02:39.919Z,969.73
2017-12-24T04:03:39.933Z,969.73
2017-12-24T04:04:39.949Z,969.69
2017-12-24T04:05:39.963Z,969.76
2017-12-24T04:06:39.975Z,969.75
2017-12-24T04:07:39.992Z,969.76
2017-12-24T04:08:40.006Z,969.77
2017-12-24T04:09:40.020Z,969.79
2017-12-24T04:10:40.084Z,969.76
2017-12-24T04:11:40.048Z,969.75
2017-12-24T04:12:40.062Z,969.76
2017-12-24T04:13:40.076Z,969.76
2017-12-24T04:14:40.092Z,969.78
2017-12-24T04:15:40.105Z,969.75
2017-12-24T04:16:40.121Z,969.81
2017-12-24T04:17:40.134Z,969.79
2017-12-24T04:18:40.149Z,969.78
2017-12-24T04:19:40.163Z,969.76
2017-12-24T04:20:40.177Z,969.77
2017-12-24T04:21:40.192Z,969.8
2017-12-24T04:22:40.208Z,969.72
2017-12-24T04:23:40.221Z,969.7
2017-12-24T04:24:40.235Z,969.69
2017-12-24T04:25:40.312Z,969.63
2017-12-24T04:26:40.265Z,969.59
2017-12-24T04:27:40.278Z,969.67
2017-12-24T04:28:40.292Z,969.71
2017-12-24T04:29:40.306Z,969.72
2017-12-24T04:30:40.322Z,969.71
2017-12-24T04:31:40.336Z,969.7
2017-12-24T04:32:40.351Z,969.69
2017-12-24T04:33:40.366Z,969.7
2017-12-24T04:34:40.380Z,969.68
2017-12-24T04:35:40.395Z,969.6
2017-12-24T04:36:40.409Z,969.72
2017-12-24T04:37:40.423Z,969.69
2017-12-24T04:38:40.439Z,969.69
2017-12-24T04:39:40.459Z,969.7
2017-12-24T04:40:40.467Z,969.76
2017-12-24T04:41:40.531Z,969.78
2017-12-24T04:42:40.497Z,969.73
2017-12-24T04:43:40.511Z,969.78
2017-12-24T04:44:40.526Z,969.75
2017-12-24T04:45:40.540Z,969.79
2017-12-24T04:46:40.555Z,969.73
2017-12-24T04:47:40.569Z,969.75
2017-12-24T04:48:40.584Z,969.75
2017-12-24T04:49:40.598Z,969.77
2017-12-24T04:50:40.611Z,969.76
2017-12-24T04:51:40.647Z,969.75
2017-12-24T04:52:40.646Z,969.77
2017-12-24T04:53:40.656Z,969.78
2017-12-24T04:54:40.670Z,969.8
2017-12-24T04:55:40.691Z,969.72
2017-12-24T04:56:40.700Z,969.74
2017-12-24T04:57:40.714Z,969.81
2017-12-24T04:58:40.730Z,969.79
2017-12-24T04:59:40.744Z,969.8
2017-12-24T05:00:40.758Z,969.87
2017-12-24T05:01:40.796Z,969.87
2017-12-24T05:02:40.787Z,969.86
2017-12-24T05:03:40.801Z,969.83
2017-12-24T05:04:40.816Z,969.76
2017-12-24T05:05:40.829Z,969.81
2017-12-24T05:06:40.846Z,969.79
2017-12-24T05:07:40.861Z,969.77
2017-12-24T05:08:40.873Z,969.75
2017-12-24T05:09:40.888Z,969.74
2017-12-24T05:10:40.904Z,969.76
2017-12-24T05:11:40.919Z,969.71
2017-12-24T05:12:40.932Z,969.68
2017-12-24T05:13:40.946Z,969.71
2017-12-24T05:14:40.962Z,969.7
2017-12-24T05:15:40.975Z,969.69
2017-12-24T05:16:40.990Z,969.63
2017-12-24T05:17:41.006Z,969.59
2017-12-24T05:18:41.020Z,969.57
2017-12-24T05:19:41.032Z,969.55
2017-12-24T05:20:41.048Z,969.53
2017-12-24T05:21:41.061Z,969.5
2017-12-24T05:22:41.078Z,969.47
2017-12-24T05:23:41.091Z,969.44
2017-12-24T05:24:41.105Z,969.52
2017-12-24T05:25:41.120Z,969.45
2017-12-24T05:26:41.135Z,969.44
2017-12-24T05:27:41.150Z,969.45
2017-12-24T05:28:41.164Z,969.44
2017-12-24T05:29:41.177Z,969.43
2017-12-24T05:30:41.227Z,969.49
2017-12-24T05:31:41.206Z,969.41
2017-12-24T05:32:41.226Z,969.39
2017-12-24T05:33:41.237Z,969.37
2017-12-24T05:34:41.250Z,969.41
2017-12-24T05:35:41.265Z,969.35
2017-12-24T05:36:41.278Z,969.32
2017-12-24T05:37:41.292Z,969.31
2017-12-24T05:38:41.308Z,969.29
2017-12-24T05:39:41.322Z,969.33
2017-12-24T05:40:41.335Z,969.33
2017-12-24T05:41:41.350Z,969.27
2017-12-24T05:42:41.364Z,969.29
2017-12-24T05:43:41.379Z,969.34
2017-12-24T05:44:41.393Z,969.29
2017-12-24T05:45:41.408Z,969.29
2017-12-24T05:46:41.421Z,969.29
2017-12-24T05:47:41.436Z,969.32
2017-12-24T05:48:41.448Z,969.35
2017-12-24T05:49:41.464Z,969.33
2017-12-24T05:50:41.480Z,969.39
2017-12-24T05:51:41.498Z,969.43
2017-12-24T05:52:41.505Z,969.4
2017-12-24T05:53:41.520Z,969.39
2017-12-24T05:54:41.535Z,969.32
2017-12-24T05:55:41.549Z,969.27
2017-12-24T05:56:41.564Z,969.27
2017-12-24T05:57:41.631Z,969.26
2017-12-24T05:58:41.592Z,969.25
2017-12-24T05:59:41.606Z,969.36
2017-12-24T06:00:41.625Z,969.33
2017-12-24T06:01:41.636Z,969.35
2017-12-24T06:02:41.651Z,969.39
2017-12-24T06:03:41.664Z,969.37
2017-12-24T06:04:41.680Z,969.35
2017-12-24T06:05:41.697Z,969.32
2017-12-24T06:06:41.712Z,969.36
2017-12-24T06:07:41.721Z,969.26
2017-12-24T06:08:41.737Z,969.28
2017-12-24T06:09:41.752Z,969.3
2017-12-24T06:10:41.766Z,969.32
2017-12-24T06:11:41.780Z,969.3
2017-12-24T06:12:41.845Z,969.29
2017-12-24T06:13:41.810Z,969.3
2017-12-24T06:14:41.822Z,969.33
2017-12-24T06:15:41.838Z,969.39
2017-12-24T06:16:41.852Z,969.29
2017-12-24T06:17:41.867Z,969.3
2017-12-24T06:18:41.881Z,969.3
2017-12-24T06:19:41.895Z,969.24
2017-12-24T06:20:41.909Z,969.28
2017-12-24T06:21:41.924Z,969.26
2017-12-24T06:22:41.938Z,969.32
2017-12-24T06:23:41.953Z,969.32
2017-12-24T06:24:41.966Z,969.36
2017-12-24T06:25:41.981Z,969.36
2017-12-24T06:26:41.995Z,969.38
2017-12-24T06:27:42.059Z,969.36
2017-12-24T06:28:42.025Z,969.46
2017-12-24T06:29:42.039Z,969.47
2017-12-24T06:30:42.060Z,969.44
2017-12-24T06:31:42.067Z,969.45
2017-12-24T06:32:42.084Z,969.38
2017-12-24T06:33:42.095Z,969.41
2017-12-24T06:34:42.110Z,969.44
2017-12-24T06:35:42.127Z,969.37
2017-12-24T06:36:42.141Z,969.39
2017-12-24T06:37:42.153Z,969.35
2017-12-24T06:38:42.167Z,969.37
2017-12-24T06:39:42.179Z,969.34
2017-12-24T06:40:42.194Z,969.33
2017-12-24T06:41:42.209Z,969.33
2017-12-24T06:42:42.275Z,969.34
2017-12-24T06:43:42.236Z,969.33
2017-12-24T06:44:42.251Z,969.27
2017-12-24T06:45:42.265Z,969.28
2017-12-24T06:46:42.281Z,969.26
2017-12-24T06:47:42.296Z,969.25
2017-12-24T06:48:42.309Z,969.25
2017-12-24T06:49:42.322Z,969.24
2017-12-24T06:50:42.335Z,969.2
2017-12-24T06:51:42.351Z,969.25
2017-12-24T06:52:42.366Z,969.17
2017-12-24T06:53:42.380Z,969.25
2017-12-24T06:54:42.393Z,969.19
2017-12-24T06:55:42.406Z,969.15
2017-12-24T06:56:42.421Z,969.19
2017-12-24T06:57:42.485Z,969.14
2017-12-24T06:58:42.450Z,969.17
2017-12-24T06:59:42.464Z,969.19
2017-12-24T07:00:42.478Z,969.18
2017-12-24T07:01:42.492Z,969.12
2017-12-24T07:02:42.508Z,969.06
2017-12-24T07:03:42.520Z,969.15
2017-12-24T07:04:42.536Z,969.12
2017-12-24T07:05:42.548Z,969.12
2017-12-24T07:06:42.563Z,969.18
2017-12-24T07:07:42.578Z,969.1
2017-12-24T07:08:42.591Z,969.2
2017-12-24T07:09:42.605Z,969.31
2017-12-24T07:10:42.619Z,969.3
2017-12-24T07:11:42.633Z,969.31
2017-12-24T07:12:42.696Z,969.33
2017-12-24T07:13:42.661Z,969.36
2017-12-24T07:14:42.675Z,969.33
2017-12-24T07:15:42.689Z,969.39
2017-12-24T07:16:42.702Z,969.36
2017-12-24T07:17:42.717Z,969.4
2017-12-24T07:18:42.731Z,969.42
2017-12-24T07:19:42.746Z,969.41
2017-12-24T07:20:42.758Z,969.38
2017-12-24T07:21:42.775Z,969.42
2017-12-24T07:22:42.787Z,969.4
2017-12-24T07:23:42.800Z,969.42
2017-12-24T07:24:42.815Z,969.43
2017-12-24T07:25:42.831Z,969.38
2017-12-24T07:26:42.843Z,969.39
2017-12-24T07:27:42.856Z,969.4
2017-12-24T07:28:42.872Z,969.45
2017-12-24T07:29:42.936Z,969.39
2017-12-24T07:30:42.900Z,969.42
2017-12-24T07:31:42.914Z,969.43
2017-12-24T07:32:42.931Z,969.38
2017-12-24T07:33:42.952Z,969.39
2017-12-24T07:34:42.955Z,969.41
2017-12-24T07:35:42.969Z,969.41
2017-12-24T07:36:42.983Z,969.43
2017-12-24T07:37:42.997Z,969.49
2017-12-24T07:38:43.012Z,969.47
2017-12-24T07:39:43.024Z,969.44
2017-12-24T07:40:43.040Z,969.44
2017-12-24T07:41:43.055Z,969.45
2017-12-24T07:42:43.067Z,969.46
2017-12-24T07:43:43.082Z,969.44
2017-12-24T07:44:43.146Z,969.47
2017-12-24T07:45:43.109Z,969.45
2017-12-24T07:46:43.124Z,969.46
2017-12-24T07:47:43.137Z,969.43
2017-12-24T07:48:43.151Z,969.41
2017-12-24T07:49:43.164Z,969.43
2017-12-24T07:50:43.179Z,969.36
2017-12-24T07:51:43.194Z,969.41
2017-12-24T07:52:43.209Z,969.39
2017-12-24T07:53:43.222Z,969.33
2017-12-24T07:54:43.236Z,969.28
2017-12-24T07:55:43.252Z,969.36
2017-12-24T07:56:43.264Z,969.3
2017-12-24T07:57:43.278Z,969.33
2017-12-24T07:58:43.293Z,969.31
2017-12-24T07:59:43.358Z,969.28
2017-12-24T08:00:43.329Z,969.22
2017-12-24T08:01:43.335Z,969.25
2017-12-24T08:02:43.370Z,969.3
2017-12-24T08:03:43.365Z,969.3
2017-12-24T08:04:43.380Z,969.25
2017-12-24T08:05:43.393Z,969.26
2017-12-24T08:06:43.408Z,969.21
2017-12-24T08:07:43.427Z,969.2
2017-12-24T08:08:43.436Z,969.19
2017-12-24T08:09:43.450Z,969.2
2017-12-24T08:10:43.470Z,969.15
2017-12-24T08:11:43.478Z,969.15
2017-12-24T08:12:43.493Z,969.2
2017-12-24T08:13:43.508Z,969.11
2017-12-24T08:14:43.572Z,969.15
2017-12-24T08:15:43.535Z,969.2
2017-12-24T08:16:43.550Z,969.14
2017-12-24T08:17:43.564Z,969.13
2017-12-24T08:18:43.577Z,969.14
2017-12-24T08:19:43.593Z,969.2
2017-12-24T08:20:43.607Z,969.17
2017-12-24T08:21:43.622Z,969.23
2017-12-24T08:22:43.635Z,969.17
2017-12-24T08:23:43.650Z,969.15
2017-12-24T08:24:43.664Z,969.16
2017-12-24T08:25:43.680Z,969.13
2017-12-24T08:26:43.692Z,969.13
2017-12-24T08:27:43.705Z,969.14
2017-12-24T08:28:43.719Z,969.1
2017-12-24T08:29:43.784Z,969.09
2017-12-24T08:30:43.748Z,969.13
2017-12-24T08:31:43.762Z,969.12
2017-12-24T08:32:43.777Z,969.03
2017-12-24T08:33:43.791Z,969.05
2017-12-24T08:34:43.804Z,969.07
2017-12-24T08:35:43.820Z,969.05
2017-12-24T08:36:43.834Z,969.06
2017-12-24T08:37:43.855Z,969.05
2017-12-24T08:38:43.870Z,969.06
2017-12-24T08:39:43.878Z,969.08
2017-12-24T08:40:43.890Z,969.04
2017-12-24T08:41:43.906Z,969.04
2017-12-24T08:42:43.920Z,969.06
2017-12-24T08:43:43.935Z,969.07
2017-12-24T08:44:43.999Z,969.09
2017-12-24T08:45:43.964Z,969.07
2017-12-24T08:46:43.978Z,969.09
2017-12-24T08:47:43.993Z,969.12
2017-12-24T08:48:44.006Z,969.09
2017-12-24T08:49:44.075Z,969.1
2017-12-24T08:50:44.035Z,969.13
2017-12-24T08:51:44.053Z,969.18
2017-12-24T08:52:44.122Z,969.08
2017-12-24T08:53:44.079Z,969.1
2017-12-24T08:54:44.094Z,969.13
2017-12-24T08:55:44.108Z,969.11
2017-12-24T08:56:44.128Z,969.07
2017-12-24T08:57:44.139Z,969.07
2017-12-24T08:58:44.151Z,969.05
2017-12-24T08:59:44.218Z,969.08
2017-12-24T09:00:44.207Z,969.09
2017-12-24T09:01:44.197Z,969.07
2017-12-24T09:02:44.212Z,969.11
2017-12-24T09:03:44.227Z,969.1
2017-12-24T09:04:44.241Z,969.06
2017-12-24T09:05:44.256Z,969.07
2017-12-24T09:06:44.276Z,969.04
2017-12-24T09:07:44.287Z,969.04
2017-12-24T09:08:44.301Z,969.01
2017-12-24T09:09:44.316Z,969.01
2017-12-24T09:10:44.330Z,969.06
2017-12-24T09:11:44.346Z,969.02
2017-12-24T09:12:44.362Z,969.03
2017-12-24T09:13:44.376Z,969.02
2017-12-24T09:14:44.442Z,969
2017-12-24T09:15:44.408Z,969.06
2017-12-24T09:16:44.424Z,969.02
2017-12-24T09:17:44.437Z,968.97
2017-12-24T09:18:44.456Z,969.01
2017-12-24T09:19:44.467Z,968.99
2017-12-24T09:20:44.483Z,969.02
2017-12-24T09:21:44.502Z,969.01
2017-12-24T09:22:44.514Z,969.03
2017-12-24T09:23:44.530Z,968.93
2017-12-24T09:24:44.545Z,968.93
2017-12-24T09:25:44.560Z,968.97
2017-12-24T09:26:44.575Z,968.93
2017-12-24T09:27:44.591Z,968.96
2017-12-24T09:28:44.609Z,969
2017-12-24T09:29:44.672Z,968.99
2017-12-24T09:30:44.637Z,969.01
2017-12-24T09:31:44.654Z,968.98
2017-12-24T09:32:44.667Z,969
2017-12-24T09:33:44.684Z,968.98
2017-12-24T09:34:44.698Z,968.97
2017-12-24T09:35:44.714Z,969.02
2017-12-24T09:36:44.728Z,969.07
2017-12-24T09:37:44.746Z,969.07
2017-12-24T09:38:44.759Z,969.05
2017-12-24T09:39:44.775Z,969
2017-12-24T09:40:44.791Z,969.05
2017-12-24T09:41:44.806Z,969.04
2017-12-24T09:42:44.821Z,969.03
2017-12-24T09:43:45.038Z,969
2017-12-24T09:44:44.907Z,969.04
2017-12-24T09:45:44.871Z,968.98
2017-12-24T09:46:44.882Z,968.98
2017-12-24T09:47:44.898Z,968.97
2017-12-24T09:48:44.914Z,968.97
2017-12-24T09:49:44.929Z,968.98
2017-12-24T09:50:44.944Z,968.98
2017-12-24T09:51:44.976Z,968.94
2017-12-24T09:52:44.975Z,968.94
2017-12-24T09:53:44.989Z,968.92
2017-12-24T09:54:45.007Z,968.97
2017-12-24T09:55:45.022Z,968.96
2017-12-24T09:56:45.037Z,968.91
2017-12-24T09:57:45.052Z,969.01
2017-12-24T09:58:45.069Z,968.96
2017-12-24T09:59:45.134Z,968.93
2017-12-24T10:00:45.099Z,969
2017-12-24T10:01:45.115Z,968.96
2017-12-24T10:02:45.131Z,968.99
2017-12-24T10:03:45.148Z,969
2017-12-24T10:04:45.263Z,969
2017-12-24T10:05:45.179Z,968.9
2017-12-24T10:06:45.196Z,968.98
2017-12-24T10:07:45.214Z,968.86
2017-12-24T10:08:45.230Z,968.96
2017-12-24T10:09:45.247Z,968.93
2017-12-24T10:10:45.265Z,968.83
2017-12-24T10:11:45.280Z,968.85
2017-12-24T10:12:45.299Z,968.85
2017-12-24T10:13:45.325Z,968.82
2017-12-24T10:14:45.485Z,968.87
2017-12-24T10:15:45.352Z,968.88
2017-12-24T10:16:45.371Z,968.88
2017-12-24T10:17:45.389Z,968.81
2017-12-24T10:18:45.409Z,968.87
2017-12-24T10:19:45.425Z,968.85
2017-12-24T10:20:45.445Z,968.84
2017-12-24T10:21:45.463Z,968.82
2017-12-24T10:22:45.483Z,968.89
2017-12-24T10:23:45.501Z,968.77
2017-12-24T10:24:45.522Z,968.81
2017-12-24T10:25:45.541Z,968.79
2017-12-24T10:26:45.560Z,968.76
2017-12-24T10:27:45.580Z,968.75
2017-12-24T10:28:45.611Z,968.77
2017-12-24T10:29:45.821Z,968.83
2017-12-24T10:30:45.639Z,968.77
2017-12-24T10:31:45.669Z,968.84
2017-12-24T10:32:45.683Z,968.8
2017-12-24T10:33:45.703Z,968.68
2017-12-24T10:34:45.724Z,968.69
2017-12-24T10:35:45.746Z,968.63
2017-12-24T10:36:45.766Z,968.61
2017-12-24T10:37:45.788Z,968.63
2017-12-24T10:38:45.810Z,968.56
2017-12-24T10:39:45.931Z,968.56
2017-12-24T10:40:45.853Z,968.56
2017-12-24T10:41:45.874Z,968.56
2017-12-24T10:42:45.898Z,968.56
2017-12-24T10:43:45.920Z,968.51
2017-12-24T10:44:45.993Z,968.47
2017-12-24T10:45:45.966Z,968.46
2017-12-24T10:46:45.989Z,968.47
2017-12-24T10:47:46.013Z,968.43
2017-12-24T10:48:46.035Z,968.43
2017-12-24T10:49:46.059Z,968.32
2017-12-24T10:50:46.082Z,968.41
2017-12-24T10:51:46.115Z,968.32
2017-12-24T10:52:46.127Z,968.36
2017-12-24T10:53:46.152Z,968.31
2017-12-24T10:54:46.177Z,968.35
2017-12-24T10:55:46.201Z,968.32
2017-12-24T10:56:46.223Z,968.28
2017-12-24T10:57:46.247Z,968.32
2017-12-24T10:58:46.272Z,968.26
2017-12-24T10:59:46.348Z,968.27
2017-12-24T11:00:46.320Z,968.26
2017-12-24T11:01:46.346Z,968.28
2017-12-24T11:02:46.370Z,968.26
2017-12-24T11:03:46.392Z,968.35
2017-12-24T11:04:46.418Z,968.23
2017-12-24T11:05:46.441Z,968.33
2017-12-24T11:06:46.464Z,968.24
2017-12-24T11:07:46.489Z,968.24
2017-12-24T11:08:46.513Z,968.21
2017-12-24T11:09:47.739Z,968.23
2017-12-24T11:10:46.562Z,968.2
2017-12-24T11:11:46.588Z,968.25
2017-12-24T11:12:46.611Z,968.2
2017-12-24T11:13:46.637Z,968.2
2017-12-24T11:14:46.662Z,968.23
2017-12-24T11:15:46.687Z,968.16
2017-12-24T11:16:46.714Z,968.17
2017-12-24T11:17:46.738Z,968.2
2017-12-24T11:18:46.763Z,968.17
2017-12-24T11:19:46.790Z,968.15
2017-12-24T11:20:46.816Z,968.17
2017-12-24T11:21:46.840Z,968.13
2017-12-24T11:22:46.867Z,968.12
2017-12-24T11:23:46.891Z,968.12
2017-12-24T11:24:46.917Z,968.11
2017-12-24T11:25:46.947Z,968.08
2017-12-24T11:26:46.971Z,968.09
2017-12-24T11:27:46.996Z,968.05
2017-12-24T11:28:47.021Z,968.03
2017-12-24T11:29:47.048Z,968.04
2017-12-24T11:30:47.075Z,968.04
2017-12-24T11:31:47.101Z,968.02
2017-12-24T11:32:47.128Z,968.03
2017-12-24T11:33:47.153Z,968.04
2017-12-24T11:34:47.181Z,967.98
2017-12-24T11:35:47.208Z,968
2017-12-24T11:36:47.236Z,967.94
2017-12-24T11:37:47.261Z,967.94
2017-12-24T11:38:47.295Z,967.91
2017-12-24T11:39:47.321Z,968.01
2017-12-24T11:40:47.343Z,967.94
2017-12-24T11:41:47.368Z,967.93
2017-12-24T11:42:47.398Z,967.93
2017-12-24T11:43:47.423Z,967.92
2017-12-24T11:44:47.453Z,967.9
2017-12-24T11:45:47.478Z,967.89
2017-12-24T11:46:47.513Z,967.93
2017-12-24T11:47:47.647Z,967.93
2017-12-24T11:48:47.560Z,967.9
2017-12-24T11:49:47.587Z,967.87
2017-12-24T11:50:47.615Z,967.87
2017-12-24T11:51:47.642Z,967.84
2017-12-24T11:52:47.670Z,967.86
2017-12-24T11:53:47.743Z,967.72
2017-12-24T11:54:47.731Z,967.84
2017-12-24T11:55:47.753Z,967.8
2017-12-24T11:56:47.780Z,967.8
2017-12-24T11:57:47.808Z,967.82
2017-12-24T11:58:47.836Z,967.82
2017-12-24T11:59:47.865Z,967.87
2017-12-24T12:00:47.893Z,967.83
2017-12-24T12:01:47.920Z,967.74
2017-12-24T12:02:47.999Z,967.8
2017-12-24T12:03:47.976Z,967.79
2017-12-24T12:04:48.005Z,967.71
2017-12-24T12:05:48.034Z,967.78
2017-12-24T12:06:48.062Z,967.76
2017-12-24T12:07:48.093Z,967.76
2017-12-24T12:08:48.118Z,967.75
2017-12-24T12:09:48.149Z,967.74
2017-12-24T12:10:48.177Z,967.73
2017-12-24T12:11:48.206Z,967.71
2017-12-24T12:12:49.236Z,967.71
2017-12-24T12:13:48.263Z,967.7
2017-12-24T12:14:48.295Z,967.73
2017-12-24T12:15:48.323Z,967.73
2017-12-24T12:16:48.352Z,967.73
2017-12-24T12:17:48.381Z,967.77
2017-12-24T12:18:48.411Z,967.72
2017-12-24T12:19:48.440Z,967.7
2017-12-24T12:20:48.470Z,967.69
2017-12-24T12:21:48.501Z,967.72
2017-12-24T12:22:48.529Z,967.71
2017-12-24T12:23:48.559Z,967.71
2017-12-24T12:24:48.588Z,967.69
2017-12-24T12:25:48.617Z,967.7
2017-12-24T12:26:48.651Z,967.74
2017-12-24T12:27:48.679Z,967.69
2017-12-24T12:28:48.709Z,967.71
2017-12-24T12:29:48.738Z,967.68
2017-12-24T12:30:48.768Z,967.73
2017-12-24T12:31:48.798Z,967.7